sensor_id;sensor_type;location;lat;lon;timestamp;pressure;altitude;pressure_sealevel;temperature;humidity
30216;BME280;17028;47.642;8.070;2022-07-29T00:02:22;93646.19;;;22.11;52.00
30216;BME280;17028;47.642;8.070;2022-07-29T00:07:23;93642.13;;;22.06;52.30
30216;BME280;17028;47.642;8.070;2022-07-29T00:12:25;93645.63;;;21.93;52.54
30216;BME280;17028;47.642;8.070;2022-07-29T00:17:26;93639.78;;;21.85;52.93
30216;BME280;17028;47.642;8.070;2022-07-29T00:22:27;93639.78;;;21.85;52.84
30216;BME280;17028;47.642;8.070;2022-07-29T00:27:28;93635.03;;;21.75;52.81
30216;BME280;17028;47.642;8.070;2022-07-29T00:32:29;93637.19;;;21.68;53.04
30216;BME280;17028;47.642;8.070;2022-07-29T00:37:30;93639.16;;;21.74;53.08
30216;BME280;17028;47.642;8.070;2022-07-29T00:42:41;93623.50;;;21.67;53.10
30216;BME280;17028;47.642;8.070;2022-07-29T00:47:42;93629.41;;;21.44;54.11
30216;BME280;17028;47.642;8.070;2022-07-29T00:52:43;93633.47;;;21.24;54.56
30216;BME280;17028;47.642;8.070;2022-07-29T00:57:45;93624.56;;;21.14;55.06
30216;BME280;17028;47.642;8.070;2022-07-29T01:02:47;93621.13;;;20.97;55.86
30216;BME280;17028;47.642;8.070;2022-07-29T01:07:53;93627.34;;;20.90;56.10
30216;BME280;17028;47.642;8.070;2022-07-29T01:12:57;93617.88;;;20.81;56.99
30216;BME280;17028;47.642;8.070;2022-07-29T01:18:16;93614.88;;;20.68;57.40
30216;BME280;17028;47.642;8.070;2022-07-29T01:34:03;93624.91;;;20.33;59.25
30216;BME280;17028;47.642;8.070;2022-07-29T01:39:11;93627.03;;;20.21;60.11
30216;BME280;17028;47.642;8.070;2022-07-29T01:44:41;93609.81;;;20.19;59.91
30216;BME280;17028;47.642;8.070;2022-07-29T01:49:41;93606.13;;;20.30;60.17
30216;BME280;17028;47.642;8.070;2022-07-29T01:54:45;93614.63;;;20.30;61.40
30216;BME280;17028;47.642;8.070;2022-07-29T01:59:50;93622.09;;;20.33;62.16
30216;BME280;17028;47.642;8.070;2022-07-29T02:04:52;93635.41;;;20.38;62.74
30216;BME280;17028;47.642;8.070;2022-07-29T02:09:55;93627.69;;;20.39;63.41
30216;BME280;17028;47.642;8.070;2022-07-29T02:14:59;93632.84;;;20.40;63.90
30216;BME280;17028;47.642;8.070;2022-07-29T02:20:03;93629.00;;;20.38;64.57
30216;BME280;17028;47.642;8.070;2022-07-29T02:25:06;93614.41;;;20.22;65.20
30216;BME280;17028;47.642;8.070;2022-07-29T02:30:09;93603.41;;;20.13;65.39
30216;BME280;17028;47.642;8.070;2022-07-29T02:35:12;93601.44;;;19.96;66.65
30216;BME280;17028;47.642;8.070;2022-07-29T02:40:15;93584.25;;;19.89;67.29
30216;BME280;17028;47.642;8.070;2022-07-29T02:45:16;93583.75;;;19.79;68.00
30216;BME280;17028;47.642;8.070;2022-07-29T02:50:21;93578.16;;;19.67;68.71
30216;BME280;17028;47.642;8.070;2022-07-29T02:55:30;93578.97;;;19.57;69.56
30216;BME280;17028;47.642;8.070;2022-07-29T03:00:37;93585.91;;;19.56;69.27
30216;BME280;17028;47.642;8.070;2022-07-29T03:05:39;93589.25;;;19.54;69.47
30216;BME280;17028;47.642;8.070;2022-07-29T03:10:44;93592.63;;;19.52;70.09
30216;BME280;17028;47.642;8.070;2022-07-29T03:15:46;93594.19;;;19.48;70.41
30216;BME280;17028;47.642;8.070;2022-07-29T03:20:48;93585.19;;;19.49;70.26
30216;BME280;17028;47.642;8.070;2022-07-29T03:25:49;93586.97;;;19.52;69.93
30216;BME280;17028;47.642;8.070;2022-07-29T03:30:50;93584.44;;;19.43;70.84
30216;BME280;17028;47.642;8.070;2022-07-29T03:35:51;93581.13;;;19.33;71.09
30216;BME280;17028;47.642;8.070;2022-07-29T03:40:56;93591.66;;;19.33;70.99
30216;BME280;17028;47.642;8.070;2022-07-29T03:45:59;93593.19;;;19.34;70.94
30216;BME280;17028;47.642;8.070;2022-07-29T03:51:02;93600.13;;;19.39;70.47
30216;BME280;17028;47.642;8.070;2022-07-29T03:56:04;93596.75;;;19.46;70.32
30216;BME280;17028;47.642;8.070;2022-07-29T04:01:07;93599.59;;;19.40;70.38
30216;BME280;17028;47.642;8.070;2022-07-29T04:06:08;93602.19;;;19.32;70.30
30216;BME280;17028;47.642;8.070;2022-07-29T04:11:09;93602.22;;;19.27;70.46
30216;BME280;17028;47.642;8.070;2022-07-29T04:16:10;93608.88;;;19.35;70.32
30216;BME280;17028;47.642;8.070;2022-07-29T04:21:11;93608.84;;;19.41;70.04
30216;BME280;17028;47.642;8.070;2022-07-29T04:26:12;93602.41;;;19.46;69.93
30216;BME280;17028;47.642;8.070;2022-07-29T04:31:13;93611.16;;;19.42;70.09
30216;BME280;17028;47.642;8.070;2022-07-29T04:36:14;93600.41;;;19.35;70.06
30216;BME280;17028;47.642;8.070;2022-07-29T04:41:15;93604.00;;;19.30;70.08
30216;BME280;17028;47.642;8.070;2022-07-29T04:46:16;93612.97;;;19.34;69.91
30216;BME280;17028;47.642;8.070;2022-07-29T04:51:17;93610.16;;;19.34;70.17
30216;BME280;17028;47.642;8.070;2022-07-29T04:56:18;93617.59;;;19.43;69.82
30216;BME280;17028;47.642;8.070;2022-07-29T05:01:19;93613.16;;;19.59;69.21
30216;BME280;17028;47.642;8.070;2022-07-29T05:06:20;93608.47;;;19.73;68.67
30216;BME280;17028;47.642;8.070;2022-07-29T05:11:21;93608.47;;;19.73;68.85
30216;BME280;17028;47.642;8.070;2022-07-29T05:16:23;93611.31;;;19.73;68.65
30216;BME280;17028;47.642;8.070;2022-07-29T05:21:24;93619.25;;;19.74;68.70
30216;BME280;17028;47.642;8.070;2022-07-29T05:26:25;93619.81;;;19.67;69.07
30216;BME280;17028;47.642;8.070;2022-07-29T05:31:26;93620.56;;;19.67;69.32
30216;BME280;17028;47.642;8.070;2022-07-29T05:36:27;93627.75;;;19.80;69.02
30216;BME280;17028;47.642;8.070;2022-07-29T05:41:28;93621.53;;;19.93;68.78
30216;BME280;17028;47.642;8.070;2022-07-29T05:46:29;93624.03;;;20.08;68.68
30216;BME280;17028;47.642;8.070;2022-07-29T05:51:31;93627.38;;;20.06;71.00
30216;BME280;17028;47.642;8.070;2022-07-29T05:56:32;93625.13;;;19.93;72.56
30216;BME280;17028;47.642;8.070;2022-07-29T06:01:33;93633.63;;;19.88;72.84
30216;BME280;17028;47.642;8.070;2022-07-29T06:06:34;93640.59;;;19.87;72.22
30216;BME280;17028;47.642;8.070;2022-07-29T06:11:35;93652.84;;;20.06;71.05
30216;BME280;17028;47.642;8.070;2022-07-29T06:16:36;93644.78;;;20.22;69.70
30216;BME280;17028;47.642;8.070;2022-07-29T06:21:42;93650.88;;;20.37;68.69
30216;BME280;17028;47.642;8.070;2022-07-29T06:26:43;93664.91;;;20.54;67.55
30216;BME280;17028;47.642;8.070;2022-07-29T06:31:44;93649.16;;;20.64;66.73
30216;BME280;17028;47.642;8.070;2022-07-29T06:36:45;93656.53;;;20.79;65.86
30216;BME280;17028;47.642;8.070;2022-07-29T06:41:47;93677.81;;;20.91;66.07
30216;BME280;17028;47.642;8.070;2022-07-29T06:46:49;93698.28;;;20.73;67.23
30216;BME280;17028;47.642;8.070;2022-07-29T06:51:52;93698.41;;;20.50;68.08
30216;BME280;17028;47.642;8.070;2022-07-29T06:56:53;93693.84;;;20.41;69.06
30216;BME280;17028;47.642;8.070;2022-07-29T07:01:54;93696.78;;;20.66;68.15
30216;BME280;17028;47.642;8.070;2022-07-29T07:06:56;93699.31;;;20.75;68.32
30216;BME280;17028;47.642;8.070;2022-07-29T07:11:57;93700.53;;;20.85;67.68
30216;BME280;17028;47.642;8.070;2022-07-29T07:16:58;93712.59;;;20.92;66.99
30216;BME280;17028;47.642;8.070;2022-07-29T07:22:01;93706.03;;;21.08;66.29
30216;BME280;17028;47.642;8.070;2022-07-29T07:27:02;93716.97;;;21.23;66.02
30216;BME280;17028;47.642;8.070;2022-07-29T07:32:03;93725.16;;;21.32;65.75
30216;BME280;17028;47.642;8.070;2022-07-29T07:37:04;93725.81;;;21.44;65.41
30216;BME280;17028;47.642;8.070;2022-07-29T07:42:05;93736.31;;;21.55;65.19
30216;BME280;17028;47.642;8.070;2022-07-29T07:47:06;93726.47;;;21.62;64.82
30216;BME280;17028;47.642;8.070;2022-07-29T07:52:07;93737.47;;;21.71;64.64
30216;BME280;17028;47.642;8.070;2022-07-29T07:57:08;93735.81;;;21.81;64.26
30216;BME280;17028;47.642;8.070;2022-07-29T08:02:09;93728.00;;;21.88;64.16
30216;BME280;17028;47.642;8.070;2022-07-29T08:07:10;93714.53;;;21.94;63.88
30216;BME280;17028;47.642;8.070;2022-07-29T08:12:11;93725.09;;;21.93;60.48
30216;BME280;17028;47.642;8.070;2022-07-29T08:17:12;93731.78;;;21.96;59.84
30216;BME280;17028;47.642;8.070;2022-07-29T08:22:14;93739.66;;;22.09;59.41
30216;BME280;17028;47.642;8.070;2022-07-29T08:27:15;93736.75;;;22.14;57.22
30216;BME280;17028;47.642;8.070;2022-07-29T08:32:16;93742.59;;;22.22;56.04
30216;BME280;17028;47.642;8.070;2022-07-29T08:37:17;93744.81;;;22.35;56.11
30216;BME280;17028;47.642;8.070;2022-07-29T08:42:18;93744.81;;;22.35;54.39
30216;BME280;17028;47.642;8.070;2022-07-29T08:47:19;93740.09;;;22.38;53.18
30216;BME280;17028;47.642;8.070;2022-07-29T08:52:21;93748.91;;;22.34;51.88
30216;BME280;17028;47.642;8.070;2022-07-29T08:57:26;93741.97;;;22.29;51.42
30216;BME280;17028;47.642;8.070;2022-07-29T09:02:29;93739.13;;;22.35;52.56
30216;BME280;17028;47.642;8.070;2022-07-29T09:07:34;93736.38;;;22.48;52.51
30216;BME280;17028;47.642;8.070;2022-07-29T09:12:35;93735.44;;;22.59;52.20
30216;BME280;17028;47.642;8.070;2022-07-29T09:17:42;93743.59;;;22.68;51.67
30216;BME280;17028;47.642;8.070;2022-07-29T09:22:44;93746.91;;;22.73;50.88
30216;BME280;17028;47.642;8.070;2022-07-29T09:27:50;93732.75;;;22.86;50.42
30216;BME280;17028;47.642;8.070;2022-07-29T09:33:01;93730.22;;;23.01;50.53
30216;BME280;17028;47.642;8.070;2022-07-29T09:38:12;93730.41;;;23.23;50.25
30216;BME280;17028;47.642;8.070;2022-07-29T09:43:14;93728.06;;;23.40;47.73
30216;BME280;17028;47.642;8.070;2022-07-29T09:53:32;93719.50;;;23.86;47.22
30216;BME280;17028;47.642;8.070;2022-07-29T09:58:34;93723.88;;;23.74;47.08
30216;BME280;17028;47.642;8.070;2022-07-29T10:03:53;93717.34;;;23.92;46.89
30216;BME280;17028;47.642;8.070;2022-07-29T10:08:54;93714.81;;;24.15;45.87
30216;BME280;17028;47.642;8.070;2022-07-29T10:13:55;93701.84;;;24.55;45.34
30216;BME280;17028;47.642;8.070;2022-07-29T10:18:56;93699.53;;;24.80;42.82
30216;BME280;17028;47.642;8.070;2022-07-29T10:23:59;93703.38;;;25.04;41.40
30216;BME280;17028;47.642;8.070;2022-07-29T10:29:00;93697.47;;;25.01;41.13
30216;BME280;17028;47.642;8.070;2022-07-29T10:34:07;93707.09;;;25.33;40.77
30216;BME280;17028;47.642;8.070;2022-07-29T10:44:41;93716.94;;;25.45;40.65
30216;BME280;17028;47.642;8.070;2022-07-29T10:50:02;93723.47;;;25.54;39.81
30216;BME280;17028;47.642;8.070;2022-07-29T10:55:04;93725.34;;;25.72;39.64
30216;BME280;17028;47.642;8.070;2022-07-29T11:05:14;93735.59;;;25.67;38.30
30216;BME280;17028;47.642;8.070;2022-07-29T11:15:21;93727.81;;;25.33;38.89
30216;BME280;17028;47.642;8.070;2022-07-29T11:20:50;93718.78;;;25.22;39.67
30216;BME280;17028;47.642;8.070;2022-07-29T11:26:18;93724.69;;;25.24;40.33
30216;BME280;17028;47.642;8.070;2022-07-29T11:31:43;93730.03;;;25.27;40.83
30216;BME280;17028;47.642;8.070;2022-07-29T11:47:20;93744.91;;;24.78;42.09
30216;BME280;17028;47.642;8.070;2022-07-29T11:52:22;93741.50;;;24.79;43.17
30216;BME280;17028;47.642;8.070;2022-07-29T11:57:24;93738.34;;;24.70;44.00
30216;BME280;17028;47.642;8.070;2022-07-29T12:02:38;93742.84;;;24.78;44.31
30216;BME280;17028;47.642;8.070;2022-07-29T12:07:39;93735.03;;;24.79;44.91
30216;BME280;17028;47.642;8.070;2022-07-29T12:12:40;93745.13;;;24.80;44.94
30216;BME280;17028;47.642;8.070;2022-07-29T12:17:41;93755.13;;;24.73;45.06
30216;BME280;17028;47.642;8.070;2022-07-29T12:22:44;93762.13;;;24.59;44.89
30216;BME280;17028;47.642;8.070;2022-07-29T12:27:45;93762.47;;;24.42;43.17
30216;BME280;17028;47.642;8.070;2022-07-29T12:32:47;93760.19;;;24.27;43.29
30216;BME280;17028;47.642;8.070;2022-07-29T12:37:49;93766.75;;;24.08;43.63
30216;BME280;17028;47.642;8.070;2022-07-29T12:43:05;93756.00;;;24.01;43.27
30216;BME280;17028;47.642;8.070;2022-07-29T12:48:08;93749.75;;;23.89;43.20
30216;BME280;17028;47.642;8.070;2022-07-29T12:53:11;93755.75;;;23.85;42.94
30216;BME280;17028;47.642;8.070;2022-07-29T12:58:12;93762.19;;;23.73;42.44
30216;BME280;17028;47.642;8.070;2022-07-29T13:03:14;93755.50;;;23.70;43.09
30216;BME280;17028;47.642;8.070;2022-07-29T13:08:16;93762.00;;;23.51;43.56
30216;BME280;17028;47.642;8.070;2022-07-29T13:13:20;93754.97;;;23.39;44.40
30216;BME280;17028;47.642;8.070;2022-07-29T13:18:28;93753.88;;;23.42;44.04
30216;BME280;17028;47.642;8.070;2022-07-29T13:23:29;93757.13;;;23.33;43.81
30216;BME280;17028;47.642;8.070;2022-07-29T13:28:30;93757.28;;;23.41;43.92
30216;BME280;17028;47.642;8.070;2022-07-29T13:33:31;93760.47;;;23.50;43.96
30216;BME280;17028;47.642;8.070;2022-07-29T13:38:32;93756.75;;;23.56;43.55
30216;BME280;17028;47.642;8.070;2022-07-29T13:43:34;93776.13;;;23.57;43.93
30216;BME280;17028;47.642;8.070;2022-07-29T13:48:35;93778.09;;;23.49;43.86
30216;BME280;17028;47.642;8.070;2022-07-29T13:53:36;93779.13;;;23.32;42.98
30216;BME280;17028;47.642;8.070;2022-07-29T13:58:37;93777.91;;;23.28;43.10
30216;BME280;17028;47.642;8.070;2022-07-29T14:03:38;93781.94;;;23.19;42.86
30216;BME280;17028;47.642;8.070;2022-07-29T14:08:41;93769.75;;;23.18;43.13
30216;BME280;17028;47.642;8.070;2022-07-29T14:13:43;93776.78;;;23.17;43.25
30216;BME280;17028;47.642;8.070;2022-07-29T14:18:44;93788.91;;;22.99;44.08
30216;BME280;17028;47.642;8.070;2022-07-29T14:23:45;93786.06;;;22.99;44.47
30216;BME280;17028;47.642;8.070;2022-07-29T14:28:46;93788.97;;;22.93;44.40
30216;BME280;17028;47.642;8.070;2022-07-29T14:33:47;93797.22;;;22.78;44.66
30216;BME280;17028;47.642;8.070;2022-07-29T14:38:48;93799.03;;;22.75;44.89
30216;BME280;17028;47.642;8.070;2022-07-29T14:43:50;93806.94;;;22.63;45.60
30216;BME280;17028;47.642;8.070;2022-07-29T14:48:52;93817.00;;;22.64;46.14
30216;BME280;17028;47.642;8.070;2022-07-29T14:53:53;93825.81;;;22.61;46.44
30216;BME280;17028;47.642;8.070;2022-07-29T14:58:55;93828.75;;;22.55;46.59
30216;BME280;17028;47.642;8.070;2022-07-29T15:03:56;93829.31;;;22.48;47.21
30216;BME280;17028;47.642;8.070;2022-07-29T15:08:57;93841.94;;;22.52;47.02
30216;BME280;17028;47.642;8.070;2022-07-29T15:13:58;93845.69;;;22.42;46.73
30216;BME280;17028;47.642;8.070;2022-07-29T15:18:59;93838.41;;;22.46;46.82
30216;BME280;17028;47.642;8.070;2022-07-29T15:24:00;93827.41;;;22.56;46.66
30216;BME280;17028;47.642;8.070;2022-07-29T15:29:01;93828.31;;;22.45;46.55
30216;BME280;17028;47.642;8.070;2022-07-29T15:34:02;93831.94;;;22.46;46.55
30216;BME280;17028;47.642;8.070;2022-07-29T15:39:03;93830.16;;;22.43;46.65
30216;BME280;17028;47.642;8.070;2022-07-29T15:44:04;93834.00;;;22.45;46.38
30216;BME280;17028;47.642;8.070;2022-07-29T15:49:06;93832.97;;;22.48;46.71
30216;BME280;17028;47.642;8.070;2022-07-29T15:54:09;93831.13;;;22.51;45.95
30216;BME280;17028;47.642;8.070;2022-07-29T15:59:10;93830.13;;;22.48;46.17
30216;BME280;17028;47.642;8.070;2022-07-29T16:04:11;93822.66;;;22.45;46.33
30216;BME280;17028;47.642;8.070;2022-07-29T16:09:13;93822.34;;;22.49;45.66
30216;BME280;17028;47.642;8.070;2022-07-29T16:14:14;93813.28;;;22.50;45.74
30216;BME280;17028;47.642;8.070;2022-07-29T16:19:15;93815.09;;;22.54;45.73
30216;BME280;17028;47.642;8.070;2022-07-29T16:24:16;93810.38;;;22.56;45.61
30216;BME280;17028;47.642;8.070;2022-07-29T16:29:17;93809.97;;;22.46;45.82
30216;BME280;17028;47.642;8.070;2022-07-29T16:34:19;93808.63;;;22.53;45.46
30216;BME280;17028;47.642;8.070;2022-07-29T16:39:20;93804.94;;;22.58;45.20
30216;BME280;17028;47.642;8.070;2022-07-29T16:44:21;93805.66;;;22.64;44.90
30216;BME280;17028;47.642;8.070;2022-07-29T16:49:22;93807.03;;;22.77;44.72
30216;BME280;17028;47.642;8.070;2022-07-29T16:54:23;93812.25;;;22.73;43.87
30216;BME280;17028;47.642;8.070;2022-07-29T16:59:24;93807.03;;;22.77;43.62
30216;BME280;17028;47.642;8.070;2022-07-29T17:04:25;93812.63;;;22.82;43.16
30216;BME280;17028;47.642;8.070;2022-07-29T17:09:27;93813.47;;;22.77;50.59
30216;BME280;17028;47.642;8.070;2022-07-29T17:14:29;93810.69;;;22.52;49.73
30216;BME280;17028;47.642;8.070;2022-07-29T17:19:33;93825.94;;;22.49;51.25
30216;BME280;17028;47.642;8.070;2022-07-29T17:24:35;93823.34;;;22.51;51.04
30216;BME280;17028;47.642;8.070;2022-07-29T17:29:36;93828.69;;;22.36;50.71
30216;BME280;17028;47.642;8.070;2022-07-29T17:34:39;93832.50;;;22.44;50.80
30216;BME280;17028;47.642;8.070;2022-07-29T17:39:41;93836.66;;;22.38;52.20
30216;BME280;17028;47.642;8.070;2022-07-29T17:44:42;93837.06;;;22.23;53.38
30216;BME280;17028;47.642;8.070;2022-07-29T17:49:44;93838.69;;;22.18;53.50
30216;BME280;17028;47.642;8.070;2022-07-29T17:54:45;93839.31;;;22.05;53.71
30216;BME280;17028;47.642;8.070;2022-07-29T17:59:48;93843.50;;;21.98;53.78
30216;BME280;17028;47.642;8.070;2022-07-29T18:04:49;93833.44;;;21.97;53.85
30216;BME280;17028;47.642;8.070;2022-07-29T18:09:50;93844.91;;;21.86;54.14
30216;BME280;17028;47.642;8.070;2022-07-29T18:14:51;93836.44;;;21.80;54.13
30216;BME280;17028;47.642;8.070;2022-07-29T18:19:52;93838.09;;;21.70;54.49
30216;BME280;17028;47.642;8.070;2022-07-29T18:29:54;93852.00;;;21.68;54.66
30216;BME280;17028;47.642;8.070;2022-07-29T18:34:55;93853.88;;;21.60;55.56
30216;BME280;17028;47.642;8.070;2022-07-29T18:39:56;93862.44;;;21.48;56.79
30216;BME280;17028;47.642;8.070;2022-07-29T18:44:57;93867.09;;;21.46;57.32
30216;BME280;17028;47.642;8.070;2022-07-29T18:49:58;93867.63;;;21.44;57.69
30216;BME280;17028;47.642;8.070;2022-07-29T18:55:00;93872.16;;;21.23;59.45
30216;BME280;17028;47.642;8.070;2022-07-29T19:00:02;93880.19;;;21.18;60.13
30216;BME280;17028;47.642;8.070;2022-07-29T19:05:05;93878.72;;;21.06;60.94
30216;BME280;17028;47.642;8.070;2022-07-29T19:10:07;93883.88;;;20.96;61.83
30216;BME280;17028;47.642;8.070;2022-07-29T19:15:08;93896.50;;;21.01;61.48
30216;BME280;17028;47.642;8.070;2022-07-29T19:20:10;93894.09;;;21.16;60.39
30216;BME280;17028;47.642;8.070;2022-07-29T19:25:11;93898.44;;;21.29;60.01
30216;BME280;17028;47.642;8.070;2022-07-29T19:30:13;93905.88;;;21.32;59.73
30216;BME280;17028;47.642;8.070;2022-07-29T19:35:14;93907.94;;;21.31;59.77
30216;BME280;17028;47.642;8.070;2022-07-29T19:40:24;93924.66;;;21.35;60.04
30216;BME280;17028;47.642;8.070;2022-07-29T19:45:26;93917.44;;;21.40;59.54
30216;BME280;17028;47.642;8.070;2022-07-29T19:50:27;93919.44;;;21.50;59.10
30216;BME280;17028;47.642;8.070;2022-07-29T19:55:28;93927.38;;;21.63;58.75
30216;BME280;17028;47.642;8.070;2022-07-29T20:00:29;93921.94;;;21.65;58.44
30216;BME280;17028;47.642;8.070;2022-07-29T20:05:31;93924.81;;;21.60;57.75
30216;BME280;17028;47.642;8.070;2022-07-29T20:10:32;93929.47;;;21.51;57.67
30216;BME280;17028;47.642;8.070;2022-07-29T20:15:34;93930.78;;;21.50;57.59
30216;BME280;17028;47.642;8.070;2022-07-29T20:20:35;93939.34;;;21.39;57.34
30216;BME280;17028;47.642;8.070;2022-07-29T20:25:36;93934.50;;;21.28;57.65
30216;BME280;17028;47.642;8.070;2022-07-29T20:30:38;93945.13;;;21.16;57.70
30216;BME280;17028;47.642;8.070;2022-07-29T20:35:39;93934.38;;;21.04;58.02
30216;BME280;17028;47.642;8.070;2022-07-29T20:40:40;93939.56;;;20.94;58.67
30216;BME280;17028;47.642;8.070;2022-07-29T20:45:41;93929.59;;;20.76;58.84
30216;BME280;17028;47.642;8.070;2022-07-29T20:50:42;93927.28;;;20.57;59.64
30216;BME280;17028;47.642;8.070;2022-07-29T20:55:44;93923.72;;;20.28;60.44
30216;BME280;17028;47.642;8.070;2022-07-29T21:00:45;93934.53;;;20.13;61.12
30216;BME280;17028;47.642;8.070;2022-07-29T21:05:47;93933.03;;;20.00;61.54
30216;BME280;17028;47.642;8.070;2022-07-29T21:10:48;93927.63;;;19.91;62.27
30216;BME280;17028;47.642;8.070;2022-07-29T21:15:49;93927.09;;;19.87;62.16
30216;BME280;17028;47.642;8.070;2022-07-29T21:20:52;93918.59;;;19.93;61.93
30216;BME280;17028;47.642;8.070;2022-07-29T21:25:54;93910.88;;;19.88;62.05
30216;BME280;17028;47.642;8.070;2022-07-29T21:30:57;93920.13;;;19.71;62.81
30216;BME280;17028;47.642;8.070;2022-07-29T21:36:00;93923.97;;;19.62;63.09
30216;BME280;17028;47.642;8.070;2022-07-29T21:41:02;93921.66;;;19.49;63.80
30216;BME280;17028;47.642;8.070;2022-07-29T21:46:04;93920.06;;;19.37;64.42
30216;BME280;17028;47.642;8.070;2022-07-29T21:51:05;93915.97;;;19.27;65.25
30216;BME280;17028;47.642;8.070;2022-07-29T21:56:06;93911.81;;;19.16;65.39
30216;BME280;17028;47.642;8.070;2022-07-29T22:01:07;93920.81;;;19.09;65.39
30216;BME280;17028;47.642;8.070;2022-07-29T22:06:08;93910.50;;;19.06;65.43
30216;BME280;17028;47.642;8.070;2022-07-29T22:11:09;93918.47;;;19.08;65.11
30216;BME280;17028;47.642;8.070;2022-07-29T22:16:10;93910.25;;;19.10;65.25
30216;BME280;17028;47.642;8.070;2022-07-29T22:21:14;93916.44;;;19.14;64.93
30216;BME280;17028;47.642;8.070;2022-07-29T22:26:15;93907.44;;;19.15;64.53
30216;BME280;17028;47.642;8.070;2022-07-29T22:31:16;93921.84;;;19.23;64.50
30216;BME280;17028;47.642;8.070;2022-07-29T22:36:18;93925.72;;;19.37;63.69
30216;BME280;17028;47.642;8.070;2022-07-29T22:41:19;93923.69;;;19.49;63.71
30216;BME280;17028;47.642;8.070;2022-07-29T22:46:20;93920.13;;;19.60;62.95
30216;BME280;17028;47.642;8.070;2022-07-29T22:51:21;93920.38;;;19.56;62.99
30216;BME280;17028;47.642;8.070;2022-07-29T22:56:22;93920.88;;;19.49;62.64
30216;BME280;17028;47.642;8.070;2022-07-29T23:01:23;93920.34;;;19.45;62.82
30216;BME280;17028;47.642;8.070;2022-07-29T23:06:24;93924.22;;;19.36;62.75
30216;BME280;17028;47.642;8.070;2022-07-29T23:11:25;93934.72;;;19.18;63.17
30216;BME280;17028;47.642;8.070;2022-07-29T23:16:27;93925.66;;;19.09;63.30
30216;BME280;17028;47.642;8.070;2022-07-29T23:21:28;93929.28;;;19.09;62.92
30216;BME280;17028;47.642;8.070;2022-07-29T23:26:29;93928.19;;;19.01;62.41
30216;BME280;17028;47.642;8.070;2022-07-29T23:31:31;93930.22;;;18.89;62.43
30216;BME280;17028;47.642;8.070;2022-07-29T23:36:32;93935.09;;;18.89;62.21
30216;BME280;17028;47.642;8.070;2022-07-29T23:41:33;93929.72;;;18.91;61.54
30216;BME280;17028;47.642;8.070;2022-07-29T23:46:34;93930.63;;;18.70;61.36
30216;BME280;17028;47.642;8.070;2022-07-29T23:51:35;93935.38;;;18.47;61.33
30216;BME280;17028;47.642;8.070;2022-07-29T23:56:36;93930.88;;;18.24;61.55
